sensor_id;sensor_type;location;lat;lon;timestamp;pressure;altitude;pressure_sealevel;temperature;humidity
50590;BME280;36547;50.514;30.840;2023-03-21T00:00:23;99668.38;;;9.97;54.82
50590;BME280;36547;50.514;30.840;2023-03-21T00:01:27;99667.44;;;9.98;54.97
50590;BME280;36547;50.514;30.840;2023-03-21T00:02:29;99667.44;;;9.98;55.12
50590;BME280;36547;50.514;30.840;2023-03-21T00:03:33;99665.64;;;9.98;55.13
50590;BME280;36547;50.514;30.840;2023-03-21T00:04:39;99661.19;;;9.99;55.26
50590;BME280;36547;50.514;30.840;2023-03-21T00:05:44;99662.05;;;9.99;55.38
50590;BME280;36547;50.514;30.840;2023-03-21T00:06:47;99661.19;;;9.99;55.56
50590;BME280;36547;50.514;30.840;2023-03-21T00:07:51;99666.33;;;10.02;55.62
50590;BME280;36547;50.514;30.840;2023-03-21T00:08:56;99662.81;;;10.01;55.61
50590;BME280;36547;50.514;30.840;2023-03-21T00:10:03;99660.08;;;10.03;55.67
50590;BME280;36547;50.514;30.840;2023-03-21T00:11:12;99666.33;;;10.02;55.65
50590;BME280;36547;50.514;30.840;2023-03-21T00:12:15;99665.47;;;10.01;55.63
50590;BME280;36547;50.514;30.840;2023-03-21T00:13:18;99666.24;;;10.03;55.41
50590;BME280;36547;50.514;30.840;2023-03-21T00:14:25;99653.83;;;10.04;55.45
50590;BME280;36547;50.514;30.840;2023-03-21T00:15:33;99660.84;;;10.05;55.33
50590;BME280;36547;50.514;30.840;2023-03-21T00:16:41;99656.48;;;10.04;55.42
50590;BME280;36547;50.514;30.840;2023-03-21T00:17:45;99653.91;;;10.02;55.54
50590;BME280;36547;50.514;30.840;2023-03-21T00:18:52;99655.63;;;10.03;55.54
50590;BME280;36547;50.514;30.840;2023-03-21T00:19:55;99654.00;;;10.01;55.48
50590;BME280;36547;50.514;30.840;2023-03-21T00:21:00;99650.40;;;10.02;55.47
50590;BME280;36547;50.514;30.840;2023-03-21T00:22:07;99652.20;;;10.01;55.53
50590;BME280;36547;50.514;30.840;2023-03-21T00:23:13;99653.05;;;10.02;55.67
50590;BME280;36547;50.514;30.840;2023-03-21T00:24:21;99649.45;;;10.03;55.72
50590;BME280;36547;50.514;30.840;2023-03-21T00:25:26;99646.80;;;10.03;55.77
50590;BME280;36547;50.514;30.840;2023-03-21T00:26:50;99651.34;;;10.01;55.51
50590;BME280;36547;50.514;30.840;2023-03-21T00:27:58;99652.11;;;10.03;55.25
50590;BME280;36547;50.514;30.840;2023-03-21T00:29:07;99643.37;;;10.01;55.53
50590;BME280;36547;50.514;30.840;2023-03-21T00:30:13;99648.69;;;10.01;55.33
50590;BME280;36547;50.514;30.840;2023-03-21T00:31:17;99647.74;;;10.02;55.39
50590;BME280;36547;50.514;30.840;2023-03-21T00:32:22;99646.03;;;10.01;55.51
50590;BME280;36547;50.514;30.840;2023-03-21T00:33:27;99648.69;;;10.01;55.54
50590;BME280;36547;50.514;30.840;2023-03-21T00:34:32;99648.69;;;10.01;55.48
50590;BME280;36547;50.514;30.840;2023-03-21T00:35:39;99651.34;;;10.01;55.76
50590;BME280;36547;50.514;30.840;2023-03-21T00:36:55;99647.12;;;10.12;55.63
50590;BME280;36547;50.514;30.840;2023-03-21T00:38:03;99646.41;;;9.95;55.64
50590;BME280;36547;50.514;30.840;2023-03-21T00:39:09;99650.73;;;9.96;55.67
50590;BME280;36547;50.514;30.840;2023-03-21T00:40:14;99648.08;;;9.96;55.58
50590;BME280;36547;50.514;30.840;2023-03-21T00:41:19;99646.28;;;9.96;55.38
50590;BME280;36547;50.514;30.840;2023-03-21T00:42:26;99649.80;;;9.97;55.34
50590;BME280;36547;50.514;30.840;2023-03-21T00:43:29;99647.26;;;9.95;55.60
50590;BME280;36547;50.514;30.840;2023-03-21T00:44:33;99645.42;;;9.96;55.48
50590;BME280;36547;50.514;30.840;2023-03-21T00:45:35;99645.42;;;9.96;55.38
50590;BME280;36547;50.514;30.840;2023-03-21T00:46:46;99647.34;;;9.93;55.09
50590;BME280;36547;50.514;30.840;2023-03-21T00:47:54;99638.61;;;9.91;55.28
50590;BME280;36547;50.514;30.840;2023-03-21T00:49:04;99640.48;;;9.89;55.27
50590;BME280;36547;50.514;30.840;2023-03-21T00:50:09;99638.61;;;9.91;55.92
50590;BME280;36547;50.514;30.840;2023-03-21T00:52:34;99638.75;;;10.04;55.64
50590;BME280;36547;50.514;30.840;2023-03-21T00:53:39;99637.23;;;9.84;55.73
50590;BME280;36547;50.514;30.840;2023-03-21T00:54:41;99640.83;;;9.83;55.28
50590;BME280;36547;50.514;30.840;2023-03-21T00:55:44;99631.06;;;9.84;55.36
50590;BME280;36547;50.514;30.840;2023-03-21T00:56:49;99635.52;;;9.83;55.46
50590;BME280;36547;50.514;30.840;2023-03-21T00:57:53;99633.80;;;9.82;55.62
50590;BME280;36547;50.514;30.840;2023-03-21T00:58:59;99633.06;;;9.80;55.91
50590;BME280;36547;50.514;30.840;2023-03-21T01:00:01;99632.95;;;9.82;56.03
50590;BME280;36547;50.514;30.840;2023-03-21T01:01:06;99629.44;;;9.81;55.67
50590;BME280;36547;50.514;30.840;2023-03-21T01:02:08;99632.09;;;9.81;55.69
50590;BME280;36547;50.514;30.840;2023-03-21T01:03:12;99630.41;;;9.80;55.93
50590;BME280;36547;50.514;30.840;2023-03-21T01:04:16;99632.20;;;9.80;56.38
50590;BME280;36547;50.514;30.840;2023-03-21T01:05:19;99635.72;;;9.80;55.99
50590;BME280;36547;50.514;30.840;2023-03-21T01:06:22;99625.96;;;9.81;55.99
50590;BME280;36547;50.514;30.840;2023-03-21T01:07:25;99619.80;;;9.80;55.82
50590;BME280;36547;50.514;30.840;2023-03-21T01:08:27;99626.13;;;9.78;55.94
50590;BME280;36547;50.514;30.840;2023-03-21T01:09:32;99622.53;;;9.79;55.83
50590;BME280;36547;50.514;30.840;2023-03-21T01:10:37;99619.11;;;9.77;55.87
50590;BME280;36547;50.514;30.840;2023-03-21T01:11:40;99618.25;;;9.76;55.65
50590;BME280;36547;50.514;30.840;2023-03-21T01:12:42;99614.74;;;9.76;55.64
50590;BME280;36547;50.514;30.840;2023-03-21T01:13:45;99617.48;;;9.74;55.76
50590;BME280;36547;50.514;30.840;2023-03-21T01:14:50;99615.77;;;9.73;55.97
50590;BME280;36547;50.514;30.840;2023-03-21T01:15:54;99619.27;;;9.74;55.77
50590;BME280;36547;50.514;30.840;2023-03-21T01:16:57;99616.70;;;9.72;55.63
50590;BME280;36547;50.514;30.840;2023-03-21T01:17:59;99619.36;;;9.72;55.74
50590;BME280;36547;50.514;30.840;2023-03-21T01:19:03;99617.64;;;9.71;56.09
50590;BME280;36547;50.514;30.840;2023-03-21T01:20:10;99622.02;;;9.72;56.27
50590;BME280;36547;50.514;30.840;2023-03-21T01:21:16;99616.70;;;9.72;56.22
50590;BME280;36547;50.514;30.840;2023-03-21T01:22:18;99617.56;;;9.73;56.26
50590;BME280;36547;50.514;30.840;2023-03-21T01:23:22;99616.62;;;9.74;56.33
50590;BME280;36547;50.514;30.840;2023-03-21T01:24:25;99612.09;;;9.76;56.22
50590;BME280;36547;50.514;30.840;2023-03-21T01:25:27;99616.54;;;9.75;56.44
50590;BME280;36547;50.514;30.840;2023-03-21T01:26:30;99613.03;;;9.75;56.48
50590;BME280;36547;50.514;30.840;2023-03-21T01:27:32;99611.23;;;9.75;56.60
50590;BME280;36547;50.514;30.840;2023-03-21T01:28:36;99612.95;;;9.76;57.23
50590;BME280;36547;50.514;30.840;2023-03-21T01:29:39;99615.59;;;9.76;57.04
50590;BME280;36547;50.514;30.840;2023-03-21T01:30:49;99612.95;;;9.76;56.45
50590;BME280;36547;50.514;30.840;2023-03-21T01:31:53;99613.88;;;9.75;56.78
50590;BME280;36547;50.514;30.840;2023-03-21T01:32:55;99609.44;;;9.76;56.47
50590;BME280;36547;50.514;30.840;2023-03-21T01:33:58;99617.39;;;9.76;56.43
50590;BME280;36547;50.514;30.840;2023-03-21T01:35:00;99612.17;;;9.74;56.74
50590;BME280;36547;50.514;30.840;2023-03-21T01:36:03;99613.88;;;9.75;56.36
50590;BME280;36547;50.514;30.840;2023-03-21T01:37:07;99611.23;;;9.75;56.42
50590;BME280;36547;50.514;30.840;2023-03-21T01:38:12;99607.64;;;9.76;56.24
50590;BME280;36547;50.514;30.840;2023-03-21T01:39:17;99614.83;;;9.74;56.47
50590;BME280;36547;50.514;30.840;2023-03-21T01:40:24;99606.87;;;9.74;56.41
50590;BME280;36547;50.514;30.840;2023-03-21T01:41:32;99598.05;;;9.74;56.46
50590;BME280;36547;50.514;30.840;2023-03-21T01:42:37;99604.38;;;9.71;56.92
50590;BME280;36547;50.514;30.840;2023-03-21T01:43:40;99606.09;;;9.72;56.32
50590;BME280;36547;50.514;30.840;2023-03-21T01:45:01;99608.75;;;9.72;56.34
50590;BME280;36547;50.514;30.840;2023-03-21T01:47:35;99598.05;;;9.74;56.45
50590;BME280;36547;50.514;30.840;2023-03-21T01:48:41;99598.05;;;9.74;56.58
50590;BME280;36547;50.514;30.840;2023-03-21T01:49:47;99602.67;;;9.70;56.16
50590;BME280;36547;50.514;30.840;2023-03-21T01:50:59;99598.30;;;9.69;56.23
50590;BME280;36547;50.514;30.840;2023-03-21T01:53:26;99594.29;;;9.78;56.77
50590;BME280;36547;50.514;30.840;2023-03-21T01:54:32;99595.41;;;9.58;56.86
50590;BME280;36547;50.514;30.840;2023-03-21T01:55:36;99597.13;;;9.59;57.03
50590;BME280;36547;50.514;30.840;2023-03-21T01:57:02;99596.19;;;9.60;57.11
50590;BME280;36547;50.514;30.840;2023-03-21T01:58:14;99591.89;;;9.73;57.13
50590;BME280;36547;50.514;30.840;2023-03-21T01:59:40;99592.84;;;9.56;57.07
50590;BME280;36547;50.514;30.840;2023-03-21T02:00:52;99597.20;;;9.73;56.97
50590;BME280;36547;50.514;30.840;2023-03-21T02:02:08;99592.16;;;9.53;57.16
50590;BME280;36547;50.514;30.840;2023-03-21T02:03:13;99599.09;;;9.55;57.03
50590;BME280;36547;50.514;30.840;2023-03-21T02:04:20;99587.45;;;9.58;57.00
50590;BME280;36547;50.514;30.840;2023-03-21T02:05:43;99589.17;;;9.59;56.88
50590;BME280;36547;50.514;30.840;2023-03-21T02:06:51;99586.43;;;9.61;57.05
50590;BME280;36547;50.514;30.840;2023-03-21T02:08:04;99585.66;;;9.58;57.46
50590;BME280;36547;50.514;30.840;2023-03-21T02:09:09;99585.41;;;9.63;57.14
50590;BME280;36547;50.514;30.840;2023-03-21T02:10:15;99582.75;;;9.63;56.86
50590;BME280;36547;50.514;30.840;2023-03-21T02:11:20;99585.58;;;9.60;56.78
50590;BME280;36547;50.514;30.840;2023-03-21T02:12:25;99583.00;;;9.58;56.89
50590;BME280;36547;50.514;30.840;2023-03-21T02:13:27;99580.44;;;9.57;56.77
50590;BME280;36547;50.514;30.840;2023-03-21T02:14:49;99585.74;;;9.57;56.73
50590;BME280;36547;50.514;30.840;2023-03-21T02:16:20;99577.78;;;9.57;56.74
50590;BME280;36547;50.514;30.840;2023-03-21T02:21:10;99567.42;;;9.52;56.82
50590;BME280;36547;50.514;30.840;2023-03-21T02:25:18;99569.05;;;9.55;56.60
50590;BME280;36547;50.514;30.840;2023-03-21T02:26:28;99560.44;;;9.51;56.70
50590;BME280;36547;50.514;30.840;2023-03-21T02:27:33;99569.42;;;9.49;56.76
50590;BME280;36547;50.514;30.840;2023-03-21T02:28:39;99565.99;;;9.47;56.88
50590;BME280;36547;50.514;30.840;2023-03-21T02:29:57;99567.02;;;9.44;57.03
50590;BME280;36547;50.514;30.840;2023-03-21T02:31:17;99572.41;;;9.43;57.11
50590;BME280;36547;50.514;30.840;2023-03-21T02:37:14;99563.67;;;9.41;57.37
50590;BME280;36547;50.514;30.840;2023-03-21T02:42:19;99561.96;;;9.40;57.00
50590;BME280;36547;50.514;30.840;2023-03-21T02:43:56;99564.53;;;9.41;56.95
50590;BME280;36547;50.514;30.840;2023-03-21T02:45:15;99560.17;;;9.40;57.03
50590;BME280;36547;50.514;30.840;2023-03-21T02:47:54;99555.02;;;9.53;57.43
50590;BME280;36547;50.514;30.840;2023-03-21T02:49:13;99558.73;;;9.35;57.37
50590;BME280;36547;50.514;30.840;2023-03-21T02:51:26;99562.91;;;9.39;57.43
50590;BME280;36547;50.514;30.840;2023-03-21T02:52:33;99559.39;;;9.38;57.50
50590;BME280;36547;50.514;30.840;2023-03-21T02:53:40;99559.39;;;9.38;57.48
50590;BME280;36547;50.514;30.840;2023-03-21T02:54:46;99557.60;;;9.39;57.15
50590;BME280;36547;50.514;30.840;2023-03-21T02:55:53;99560.45;;;9.36;57.35
50590;BME280;36547;50.514;30.840;2023-03-21T02:56:58;99554.20;;;9.37;57.72
50590;BME280;36547;50.514;30.840;2023-03-21T02:58:02;99554.09;;;9.38;57.73
50590;BME280;36547;50.514;30.840;2023-03-21T02:59:08;99556.74;;;9.38;57.63
50590;BME280;36547;50.514;30.840;2023-03-21T03:00:17;99559.39;;;9.38;57.78
50590;BME280;36547;50.514;30.840;2023-03-21T03:01:21;99554.95;;;9.39;58.00
50590;BME280;36547;50.514;30.840;2023-03-21T03:02:26;99554.86;;;9.40;57.93
50590;BME280;36547;50.514;30.840;2023-03-21T03:03:30;99555.72;;;9.41;57.73
50590;BME280;36547;50.514;30.840;2023-03-21T03:04:34;99559.31;;;9.40;57.95
50590;BME280;36547;50.514;30.840;2023-03-21T03:05:50;99553.23;;;9.38;58.02
50590;BME280;36547;50.514;30.840;2023-03-21T03:09:25;99559.23;;;9.41;57.94
50590;BME280;36547;50.514;30.840;2023-03-21T03:12:08;99556.49;;;9.43;57.68
50590;BME280;36547;50.514;30.840;2023-03-21T03:17:25;99559.92;;;9.29;57.23
50590;BME280;36547;50.514;30.840;2023-03-21T03:21:20;99560.86;;;9.44;56.58
50590;BME280;36547;50.514;30.840;2023-03-21T03:22:34;99563.19;;;9.18;57.03
50590;BME280;36547;50.514;30.840;2023-03-21T03:23:42;99564.12;;;9.17;56.53
50590;BME280;36547;50.514;30.840;2023-03-21T03:26:12;99557.27;;;9.29;56.74
50590;BME280;36547;50.514;30.840;2023-03-21T03:27:34;99567.37;;;9.07;56.75
50590;BME280;36547;50.514;30.840;2023-03-21T03:28:40;99564.53;;;9.10;56.81
50590;BME280;36547;50.514;30.840;2023-03-21T03:29:47;99565.39;;;9.10;56.83
50590;BME280;36547;50.514;30.840;2023-03-21T03:30:54;99568.03;;;9.10;56.94
50590;BME280;36547;50.514;30.840;2023-03-21T03:32:14;99567.30;;;9.08;56.98
50590;BME280;36547;50.514;30.840;2023-03-21T03:33:17;99573.53;;;9.07;57.00
50590;BME280;36547;50.514;30.840;2023-03-21T03:34:23;99572.75;;;9.05;56.91
50590;BME280;36547;50.514;30.840;2023-03-21T03:35:29;99571.05;;;9.04;56.91
50590;BME280;36547;50.514;30.840;2023-03-21T03:36:35;99573.85;;;9.01;57.23
50590;BME280;36547;50.514;30.840;2023-03-21T03:37:41;99569.41;;;9.02;57.21
50590;BME280;36547;50.514;30.840;2023-03-21T03:38:47;99569.48;;;9.00;57.12
50590;BME280;36547;50.514;30.840;2023-03-21T03:40:01;99574.95;;;8.97;57.11
50590;BME280;36547;50.514;30.840;2023-03-21T03:41:11;99573.23;;;8.96;57.22
50590;BME280;36547;50.514;30.840;2023-03-21T03:42:21;99570.78;;;8.93;57.30
50590;BME280;36547;50.514;30.840;2023-03-21T03:43:43;99575.22;;;8.93;57.36
50590;BME280;36547;50.514;30.840;2023-03-21T03:44:46;99573.43;;;8.93;57.33
50590;BME280;36547;50.514;30.840;2023-03-21T03:45:55;99572.58;;;8.93;57.44
50590;BME280;36547;50.514;30.840;2023-03-21T03:47:05;99575.30;;;8.91;57.34
50590;BME280;36547;50.514;30.840;2023-03-21T03:49:25;99565.64;;;8.90;57.44
50590;BME280;36547;50.514;30.840;2023-03-21T03:50:35;99568.29;;;8.90;57.73
50590;BME280;36547;50.514;30.840;2023-03-21T03:52:03;99567.52;;;8.88;58.02
50590;BME280;36547;50.514;30.840;2023-03-21T03:54:26;99569.84;;;8.94;58.64
50590;BME280;36547;50.514;30.840;2023-03-21T03:55:30;99567.94;;;8.96;58.72
50590;BME280;36547;50.514;30.840;2023-03-21T03:56:34;99568.80;;;8.97;58.97
50590;BME280;36547;50.514;30.840;2023-03-21T03:57:40;99566.06;;;8.98;58.90
50590;BME280;36547;50.514;30.840;2023-03-21T03:58:42;99572.14;;;9.00;58.86
50590;BME280;36547;50.514;30.840;2023-03-21T03:59:49;99569.48;;;9.00;59.06
50590;BME280;36547;50.514;30.840;2023-03-21T04:01:02;99567.61;;;9.02;58.88
50590;BME280;36547;50.514;30.840;2023-03-21T04:02:04;99570.10;;;9.05;58.92
50590;BME280;36547;50.514;30.840;2023-03-21T04:03:07;99571.73;;;9.08;58.98
50590;BME280;36547;50.514;30.840;2023-03-21T04:04:09;99561.99;;;9.08;58.95
50590;BME280;36547;50.514;30.840;2023-03-21T04:05:14;99565.39;;;9.10;58.92
50590;BME280;36547;50.514;30.840;2023-03-21T04:06:18;99566.23;;;9.11;58.93
50590;BME280;36547;50.514;30.840;2023-03-21T04:07:21;99570.52;;;9.13;58.78
50590;BME280;36547;50.514;30.840;2023-03-21T04:08:25;99566.16;;;9.12;58.76
50590;BME280;36547;50.514;30.840;2023-03-21T04:09:29;99569.75;;;9.11;58.79
50590;BME280;36547;50.514;30.840;2023-03-21T04:10:34;99571.38;;;9.14;58.74
50590;BME280;36547;50.514;30.840;2023-03-21T04:11:37;99564.20;;;9.16;58.66
50590;BME280;36547;50.514;30.840;2023-03-21T04:12:40;99573.95;;;9.15;58.51
50590;BME280;36547;50.514;30.840;2023-03-21T04:13:53;99572.23;;;9.14;58.30
50590;BME280;36547;50.514;30.840;2023-03-21T04:14:57;99574.97;;;9.13;57.90
50590;BME280;36547;50.514;30.840;2023-03-21T04:16:03;99567.09;;;9.11;57.75
50590;BME280;36547;50.514;30.840;2023-03-21T04:17:06;99567.30;;;9.08;57.40
50590;BME280;36547;50.514;30.840;2023-03-21T04:18:08;99577.03;;;9.08;57.19
50590;BME280;36547;50.514;30.840;2023-03-21T04:19:11;99565.66;;;9.06;56.91
50590;BME280;36547;50.514;30.840;2023-03-21T04:20:14;99565.73;;;9.04;56.93
50590;BME280;36547;50.514;30.840;2023-03-21T04:21:18;99565.98;;;9.00;56.55
50590;BME280;36547;50.514;30.840;2023-03-21T04:22:21;99569.73;;;8.96;56.58
50590;BME280;36547;50.514;30.840;2023-03-21T04:23:24;99570.67;;;8.95;56.63
50590;BME280;36547;50.514;30.840;2023-03-21T04:24:26;99571.72;;;8.92;56.54
50590;BME280;36547;50.514;30.840;2023-03-21T04:25:29;99571.88;;;8.89;56.52
50590;BME280;36547;50.514;30.840;2023-03-21T04:26:35;99570.32;;;8.85;56.55
50590;BME280;36547;50.514;30.840;2023-03-21T04:27:56;99566.97;;;8.81;56.59
50590;BME280;36547;50.514;30.840;2023-03-21T04:29:04;99565.18;;;8.82;56.68
50590;BME280;36547;50.514;30.840;2023-03-21T04:30:18;99568.95;;;8.78;56.93
50590;BME280;36547;50.514;30.840;2023-03-21T04:31:22;99560.93;;;8.79;57.06
50590;BME280;36547;50.514;30.840;2023-03-21T04:32:27;99565.38;;;8.79;57.09
50590;BME280;36547;50.514;30.840;2023-03-21T04:33:31;99567.24;;;8.77;57.24
50590;BME280;36547;50.514;30.840;2023-03-21T04:34:34;99574.25;;;8.78;57.49
50590;BME280;36547;50.514;30.840;2023-03-21T04:35:36;99561.95;;;8.77;57.61
50590;BME280;36547;50.514;30.840;2023-03-21T04:36:40;99561.95;;;8.77;57.66
50590;BME280;36547;50.514;30.840;2023-03-21T04:37:42;99563.58;;;8.79;57.75
50590;BME280;36547;50.514;30.840;2023-03-21T04:38:47;99560.81;;;8.81;57.91
50590;BME280;36547;50.514;30.840;2023-03-21T04:39:51;99566.11;;;8.81;57.83
50590;BME280;36547;50.514;30.840;2023-03-21T04:40:53;99561.67;;;8.81;57.35
50590;BME280;36547;50.514;30.840;2023-03-21T04:41:56;99559.72;;;8.85;57.14
50590;BME280;36547;50.514;30.840;2023-03-21T04:42:58;99564.94;;;8.86;56.78
50590;BME280;36547;50.514;30.840;2023-03-21T04:44:02;99560.50;;;8.87;56.63
50590;BME280;36547;50.514;30.840;2023-03-21T04:45:06;99563.15;;;8.87;56.67
50590;BME280;36547;50.514;30.840;2023-03-21T04:46:09;99559.56;;;8.88;56.68
50590;BME280;36547;50.514;30.840;2023-03-21T04:47:13;99559.24;;;8.94;56.83
50590;BME280;36547;50.514;30.840;2023-03-21T04:48:15;99560.77;;;8.98;57.10
50590;BME280;36547;50.514;30.840;2023-03-21T04:49:18;99558.73;;;9.03;57.12
50590;BME280;36547;50.514;30.840;2023-03-21T04:50:21;99561.02;;;9.09;57.20
50590;BME280;36547;50.514;30.840;2023-03-21T04:51:23;99558.91;;;9.16;57.24
50590;BME280;36547;50.514;30.840;2023-03-21T04:52:26;99558.57;;;9.22;57.24
50590;BME280;36547;50.514;30.840;2023-03-21T04:53:28;99555.48;;;9.30;57.13
50590;BME280;36547;50.514;30.840;2023-03-21T04:54:30;99561.30;;;9.36;56.76
50590;BME280;36547;50.514;30.840;2023-03-21T04:56:50;99560.76;;;9.61;56.34
50590;BME280;36547;50.514;30.840;2023-03-21T04:57:53;99558.89;;;9.47;56.21
50590;BME280;36547;50.514;30.840;2023-03-21T04:58:58;99557.50;;;9.56;56.22
50590;BME280;36547;50.514;30.840;2023-03-21T05:00:16;99561.59;;;9.77;56.13
50590;BME280;36547;50.514;30.840;2023-03-21T05:01:18;99564.02;;;9.66;55.55
50590;BME280;36547;50.514;30.840;2023-03-21T05:02:20;99567.06;;;9.74;55.31
50590;BME280;36547;50.514;30.840;2023-03-21T05:03:23;99565.19;;;9.76;54.91
50590;BME280;36547;50.514;30.840;2023-03-21T05:04:27;99571.91;;;9.82;54.70
50590;BME280;36547;50.514;30.840;2023-03-21T05:05:30;99561.05;;;9.86;54.47
50590;BME280;36547;50.514;30.840;2023-03-21T05:06:34;99564.38;;;9.90;54.23
50590;BME280;36547;50.514;30.840;2023-03-21T05:07:38;99561.34;;;9.96;54.43
50590;BME280;36547;50.514;30.840;2023-03-21T05:08:42;99561.27;;;9.98;54.07
50590;BME280;36547;50.514;30.840;2023-03-21T05:09:46;99563.56;;;10.04;54.09
50590;BME280;36547;50.514;30.840;2023-03-21T05:10:51;99564.25;;;10.07;54.00
50590;BME280;36547;50.514;30.840;2023-03-21T05:11:54;99563.09;;;10.11;53.95
50590;BME280;36547;50.514;30.840;2023-03-21T05:12:57;99562.84;;;10.16;53.96
50590;BME280;36547;50.514;30.840;2023-03-21T05:14:01;99559.09;;;10.20;53.62
50590;BME280;36547;50.514;30.840;2023-03-21T05:15:07;99568.47;;;10.25;53.56
50590;BME280;36547;50.514;30.840;2023-03-21T05:16:11;99563.84;;;10.29;53.49
50590;BME280;36547;50.514;30.840;2023-03-21T05:17:14;99561.95;;;10.31;53.07
50590;BME280;36547;50.514;30.840;2023-03-21T05:18:17;99561.09;;;10.31;52.82
50590;BME280;36547;50.514;30.840;2023-03-21T05:20:38;99562.16;;;10.42;52.53
50590;BME280;36547;50.514;30.840;2023-03-21T05:21:40;99565.94;;;10.24;52.94
50590;BME280;36547;50.514;30.840;2023-03-21T05:22:45;99570.19;;;10.26;53.04
50590;BME280;36547;50.514;30.840;2023-03-21T05:23:49;99564.88;;;10.26;53.08
50590;BME280;36547;50.514;30.840;2023-03-21T05:24:52;99576.36;;;10.27;53.04
50590;BME280;36547;50.514;30.840;2023-03-21T05:25:57;99575.59;;;10.25;52.91
50590;BME280;36547;50.514;30.840;2023-03-21T05:27:01;99578.24;;;10.25;53.18
50590;BME280;36547;50.514;30.840;2023-03-21T05:28:06;99571.25;;;10.24;53.22
50590;BME280;36547;50.514;30.840;2023-03-21T05:29:10;99573.91;;;10.24;53.29
50590;BME280;36547;50.514;30.840;2023-03-21T05:30:15;99574.85;;;10.23;53.29
50590;BME280;36547;50.514;30.840;2023-03-21T05:31:19;99577.51;;;10.23;53.44
50590;BME280;36547;50.514;30.840;2023-03-21T05:32:25;99585.47;;;10.23;53.71
50590;BME280;36547;50.514;30.840;2023-03-21T05:33:27;99580.34;;;10.20;53.73
50590;BME280;36547;50.514;30.840;2023-03-21T05:34:30;99583.84;;;10.20;53.66
50590;BME280;36547;50.514;30.840;2023-03-21T05:35:32;99577.77;;;10.18;53.76
50590;BME280;36547;50.514;30.840;2023-03-21T05:36:37;99580.42;;;10.18;53.96
50590;BME280;36547;50.514;30.840;2023-03-21T05:37:42;99585.65;;;10.20;54.11
50590;BME280;36547;50.514;30.840;2023-03-21T05:38:45;99576.88;;;10.18;53.92
50590;BME280;36547;50.514;30.840;2023-03-21T05:39:48;99581.33;;;10.17;54.05
50590;BME280;36547;50.514;30.840;2023-03-21T05:40:53;99582.19;;;10.18;53.92
50590;BME280;36547;50.514;30.840;2023-03-21T05:41:56;99585.96;;;10.14;53.79
50590;BME280;36547;50.514;30.840;2023-03-21T05:42:59;99587.84;;;10.12;53.75
50590;BME280;36547;50.514;30.840;2023-03-21T05:44:02;99588.80;;;10.11;54.13
50590;BME280;36547;50.514;30.840;2023-03-21T05:45:05;99586.34;;;10.08;53.95
50590;BME280;36547;50.514;30.840;2023-03-21T05:46:10;99595.25;;;10.07;53.93
50590;BME280;36547;50.514;30.840;2023-03-21T05:47:15;99586.52;;;10.05;53.89
50590;BME280;36547;50.514;30.840;2023-03-21T05:48:19;99582.16;;;10.04;53.89
50590;BME280;36547;50.514;30.840;2023-03-21T05:49:30;99584.80;;;10.04;54.04
50590;BME280;36547;50.514;30.840;2023-03-21T05:50:34;99583.09;;;10.03;54.05
50590;BME280;36547;50.514;30.840;2023-03-21T05:51:44;99584.98;;;10.01;54.13
50590;BME280;36547;50.514;30.840;2023-03-21T05:52:47;99590.45;;;9.98;54.01
50590;BME280;36547;50.514;30.840;2023-03-21T05:53:49;99587.03;;;9.96;54.06
50590;BME280;36547;50.514;30.840;2023-03-21T05:54:51;99595.97;;;9.95;54.15
50590;BME280;36547;50.514;30.840;2023-03-21T05:55:55;99586.21;;;9.95;54.21
50590;BME280;36547;50.514;30.840;2023-03-21T05:57:06;99588.09;;;9.93;54.23
50590;BME280;36547;50.514;30.840;2023-03-21T05:58:23;99581.93;;;9.92;54.27
50590;BME280;36547;50.514;30.840;2023-03-21T05:59:26;99595.11;;;9.94;54.38
50590;BME280;36547;50.514;30.840;2023-03-21T06:00:29;99588.09;;;9.93;54.33
50590;BME280;36547;50.514;30.840;2023-03-21T06:01:36;99581.93;;;9.92;54.35
50590;BME280;36547;50.514;30.840;2023-03-21T06:02:44;99588.18;;;9.91;54.31
50590;BME280;36547;50.514;30.840;2023-03-21T06:03:48;99582.95;;;9.90;54.35
50590;BME280;36547;50.514;30.840;2023-03-21T06:04:53;99590.06;;;9.89;54.43
50590;BME280;36547;50.514;30.840;2023-03-21T06:05:56;99592.72;;;9.89;54.49
50590;BME280;36547;50.514;30.840;2023-03-21T06:07:01;99591.78;;;9.90;54.55
50590;BME280;36547;50.514;30.840;2023-03-21T06:08:04;99583.81;;;9.90;54.46
50590;BME280;36547;50.514;30.840;2023-03-21T06:09:07;99585.53;;;9.91;54.51
50590;BME280;36547;50.514;30.840;2023-03-21T06:10:11;99579.36;;;9.91;54.53
50590;BME280;36547;50.514;30.840;2023-03-21T06:11:22;99579.36;;;9.91;54.54
50590;BME280;36547;50.514;30.840;2023-03-21T06:12:25;99577.56;;;9.91;54.56
50590;BME280;36547;50.514;30.840;2023-03-21T06:13:41;99573.97;;;9.92;55.03
50590;BME280;36547;50.514;30.840;2023-03-21T06:14:43;99581.93;;;9.92;55.16
50590;BME280;36547;50.514;30.840;2023-03-21T06:15:53;99573.97;;;9.92;55.28
50590;BME280;36547;50.514;30.840;2023-03-21T06:16:58;99585.35;;;9.95;55.39
50590;BME280;36547;50.514;30.840;2023-03-21T06:18:02;99582.58;;;9.96;55.50
50590;BME280;36547;50.514;30.840;2023-03-21T06:19:06;99583.44;;;9.97;55.41
50590;BME280;36547;50.514;30.840;2023-03-21T06:20:16;99579.84;;;9.98;55.42
50590;BME280;36547;50.514;30.840;2023-03-21T06:21:21;99577.95;;;10.00;55.85
50590;BME280;36547;50.514;30.840;2023-03-21T06:22:23;99576.92;;;10.02;57.08
50590;BME280;36547;50.514;30.840;2023-03-21T06:23:25;99582.16;;;10.04;57.10
50590;BME280;36547;50.514;30.840;2023-03-21T06:24:28;99574.19;;;10.04;56.94
50590;BME280;36547;50.514;30.840;2023-03-21T06:25:33;99577.61;;;10.06;56.68
50590;BME280;36547;50.514;30.840;2023-03-21T06:26:36;99577.52;;;10.07;56.27
50590;BME280;36547;50.514;30.840;2023-03-21T06:27:39;99577.44;;;10.09;55.97
50590;BME280;36547;50.514;30.840;2023-03-21T06:28:42;99572.13;;;10.09;55.97